Pleasant Grove, UT (84062)

11:20 AM MDT on October 31, 2014 (GMT -0600)
Cedar Hills - South | Change Station
CLOSE
Current Station
Personal Weather Station
Location: Cedar Hills, UT
Elevation: 4969 ft
Nearby Weather Stations

Elev 4969 ft 40.40 °N, 111.74 °W | Updated 7 seconds ago

Clear
Clear
56.6 °F
Feels Like 56.6 °F
N
0.0
Wind Variable Wind from South
Gusts 0.0 mph

Today
High -- | Low -- °F
--% Chance of Precip.
Yesterday
High -- | Low -- °F
Precip. -- in
7:55 AM 6:24 PM
First Quarter, 57% visible
Pressure 30.04 in
Visibility 15.0 miles
Clouds Mostly Cloudy 16000 ft
Dew Point 26 °F
Humidity 30%
Rainfall 0.00 in
Snow Depth Not available.
UV 2 out of 12
Pollen 1.40 out of 12
Air Quality Not available.
Flu Activity Not available.
METAR KPVU 311657Z 15007KT 15SM BKN160 17/M02 A3004

More Conditions Fewer Conditions

Pressure 30.04 in
Visibility 15.0 miles
Clouds Mostly Cloudy 16000 ft
Dew Point 26 °F
Humidity 30%
Rainfall 0.00 in
Snow Depth Not available.
UV 2 out of 12
Pollen 1.40 out of 12
Air Quality Not available.
Flu Activity Not available.
METAR KPVU 311657Z 15007KT 15SM BKN160 17/M02 A3004

More Conditions Fewer Conditions

10-Day Weather Forecast

Almanac

Astronomy

Oct. 31, 2014 Rise Set
Actual Time
Civil Twilight
Nautical Twilight
Astronomical Twilight
Moon
Length of Visible Light
Length of Day
Tomorrow will be .
, % of the Moon is Illuminated

Today's Extremes

State Highs State Lows

Community

WunderPhotos

Upload Photos

1,766,669 photos uploaded!

WunderBlogs® & News

Nearby

Air Quality

  Air Quality AQ Index Pollutant
Not available.

Snow Depth

Station Depth Elevation

Earthquake Activity

City Distance Mag. Time & Date
Minimum magnitude displayed is 2.5.

Coastal Water Temperatures

Place Temperature

Nearby Weather Stations